Time;durP1;ratioP1;P1;durP2;ratioP2;P2;SDS_P1;SDS_P2;PMS_P1;PMS_P2;Temp;Humidity;BMP_temperature;BMP_pressure;BME280_temperature;BME280_humidity;BME280_pressure;Samples;Min_cycle;Max_cycle;Signal;HPM_P1;HPM_P2
2022/01/13 00:02:13;;;;;;;12.73;9.10;;;;;;;18.68;44.04;102406.06;5036255;28;20164;-43
2022/01/13 00:04:39;;;;;;;11.70;8.82;;;;;;;18.67;43.90;102413.16;5050259;28;20447;-41
2022/01/13 00:07:05;;;;;;;12.07;8.88;;;;;;;18.65;43.90;102422.22;5040698;28;20051;-43
2022/01/13 00:09:31;;;;;;;10.60;8.23;;;;;;;18.63;43.93;102411.81;5047121;28;20036;-40
2022/01/13 00:11:57;;;;;;;10.82;8.30;;;;;;;18.62;44.03;102419.88;5043851;28;20021;-43
2022/01/13 00:14:37;;;;;;;12.85;8.85;;;;;;;18.60;43.88;102414.75;5034794;28;20060;-43
2022/01/13 00:17:22;;;;;;;12.65;8.73;;;;;;;18.58;44.00;102411.38;5041288;28;20254;-45
2022/01/13 00:19:56;;;;;;;11.55;8.90;;;;;;;18.56;43.92;102413.34;5027951;28;20029;-42
2022/01/13 00:22:39;;;;;;;12.70;8.68;;;;;;;18.54;43.39;102420.59;5041397;28;20036;-41
2022/01/13 00:25:08;;;;;;;11.77;9.32;;;;;;;18.53;43.36;102418.91;5046145;28;20132;-43
2022/01/13 00:27:37;;;;;;;12.93;9.23;;;;;;;18.53;43.42;102421.56;5043945;28;20499;-43
2022/01/13 00:30:03;;;;;;;10.68;8.65;;;;;;;18.52;43.61;102420.72;5059349;28;20063;-42
2022/01/13 00:32:31;;;;;;;12.25;9.50;;;;;;;18.53;43.47;102416.28;5051730;28;20620;-42
2022/01/13 00:34:57;;;;;;;9.88;8.30;;;;;;;18.50;43.40;102408.66;5044310;28;20099;-44
2022/01/13 00:37:23;;;;;;;11.23;8.43;;;;;;;18.49;43.50;102418.38;5039482;28;20496;-42
2022/01/13 00:39:48;;;;;;;11.20;8.75;;;;;;;18.47;43.58;102422.97;5041591;28;20120;-41
2022/01/13 00:42:14;;;;;;;10.93;8.15;;;;;;;18.47;43.49;102416.88;5046957;28;20480;-45
2022/01/13 00:44:39;;;;;;;11.07;8.73;;;;;;;18.45;43.37;102426.75;5048061;28;20028;-40
2022/01/13 00:47:09;;;;;;;11.82;8.45;;;;;;;18.43;43.52;102429.53;5046439;28;20124;-42
2022/01/13 00:49:35;;;;;;;10.40;8.85;;;;;;;18.41;43.51;102425.41;5051981;28;20021;-40
2022/01/13 00:52:01;;;;;;;9.77;7.63;;;;;;;18.41;43.43;102425.41;5043492;28;20024;-41
2022/01/13 00:54:26;;;;;;;12.68;8.98;;;;;;;18.39;43.37;102416.81;5043248;28;20584;-41
2022/01/13 00:56:52;;;;;;;10.85;8.40;;;;;;;18.39;43.32;102409.72;5048591;28;20070;-44
2022/01/13 00:59:18;;;;;;;10.23;8.15;;;;;;;18.37;43.47;102414.31;5044340;28;20828;-42
2022/01/13 01:01:51;;;;;;;9.77;7.65;;;;;;;18.35;43.15;102416.28;5045668;28;20112;-41
2022/01/13 01:04:18;;;;;;;11.38;8.23;;;;;;;18.37;43.10;102424.03;5045827;28;20123;-43
2022/01/13 01:06:44;;;;;;;11.40;8.13;;;;;;;18.37;42.94;102434.59;5045990;28;20033;-40
2022/01/13 01:09:17;;;;;;;9.32;7.55;;;;;;;18.37;43.02;102431.97;5058256;28;20410;-41
2022/01/13 01:11:46;;;;;;;10.05;7.85;;;;;;;18.35;42.93;102441.84;5056218;28;20033;-40
2022/01/13 01:14:13;;;;;;;11.82;8.55;;;;;;;18.35;42.83;102433.91;5052167;28;20595;-44
2022/01/13 01:16:39;;;;;;;10.63;7.80;;;;;;;18.34;42.84;102437.53;5050364;28;20028;-42
2022/01/13 01:19:07;;;;;;;10.95;8.35;;;;;;;18.32;42.85;102442.97;5054786;28;20036;-43
2022/01/13 01:26:44;;;;;;;9.48;7.65;;;;;;;18.31;42.71;102443.09;5062901;28;20554;-44
2022/01/13 01:31:49;;;;;;;10.27;7.65;;;;;;;18.26;42.42;102432.16;5052198;28;20041;-42
2022/01/13 01:36:42;;;;;;;10.70;8.05;;;;;;;18.26;42.43;102432.16;5066692;28;20041;-42
2022/01/13 01:39:08;;;;;;;11.68;8.05;;;;;;;18.25;42.43;102441.88;5065670;28;20457;-43
2022/01/13 01:41:40;;;;;;;9.82;7.60;;;;;;;18.23;42.52;102449.13;5063678;28;20059;-43
2022/01/13 01:44:07;;;;;;;9.70;8.25;;;;;;;18.20;42.62;102450.22;5060912;28;20499;-44
2022/01/13 01:46:38;;;;;;;12.55;8.23;;;;;;;18.19;42.47;102450.38;5052382;28;20029;-43
2022/01/13 01:49:14;;;;;;;10.65;7.93;;;;;;;18.18;42.44;102451.34;5063036;28;20124;-40
2022/01/13 01:51:40;;;;;;;10.57;8.20;;;;;;;18.16;42.50;102453.31;5061978;28;20027;-42
2022/01/13 01:54:06;;;;;;;11.68;7.97;;;;;;;18.16;42.41;102453.31;5062632;28;20052;-42
2022/01/13 01:56:31;;;;;;;11.00;7.97;;;;;;;18.14;42.42;102448.19;5051602;28;20426;-43
2022/01/13 01:59:01;;;;;;;9.30;6.68;;;;;;;18.13;42.51;102448.31;5045591;28;20037;-43
2022/01/13 02:01:28;;;;;;;9.90;7.38;;;;;;;18.11;42.32;102451.09;5045006;28;20025;-42
2022/01/13 02:03:54;;;;;;;8.73;6.95;;;;;;;18.11;42.42;102452.91;5067970;28;20605;-44
2022/01/13 02:06:19;;;;;;;9.07;6.78;;;;;;;18.09;42.33;102458.34;5070417;28;20041;-42
2022/01/13 02:08:45;;;;;;;10.65;7.57;;;;;;;18.08;42.28;102455.84;5060577;28;20025;-41
2022/01/13 02:11:10;;;;;;;10.88;8.20;;;;;;;18.04;42.38;102447.38;5055669;28;20474;-40
2022/01/13 02:13:39;;;;;;;8.77;7.03;;;;;;;18.05;42.37;102456.13;5052830;28;20166;-42
2022/01/13 02:16:16;;;;;;;12.13;7.18;;;;;;;18.03;42.33;102445.72;5055793;28;20140;-43
2022/01/13 02:18:42;;;;;;;10.25;8.18;;;;;;;18.01;42.39;102442.41;5068623;28;20078;-43
2022/01/13 02:21:10;;;;;;;9.77;7.85;;;;;;;18.01;42.21;102455.59;5069094;28;20032;-41
2022/01/13 02:23:39;;;;;;;10.70;7.63;;;;;;;18.00;42.46;102461.00;5060229;28;20060;-43
2022/01/13 02:26:09;;;;;;;10.65;7.60;;;;;;;17.99;42.28;102447.00;5068448;28;20515;-44
2022/01/13 02:28:35;;;;;;;8.55;7.40;;;;;;;17.98;42.42;102439.22;5063909;28;20495;-43
2022/01/13 02:31:01;;;;;;;10.77;7.75;;;;;;;17.97;42.27;102453.38;5058627;28;20158;-42
2022/01/13 02:33:27;;;;;;;11.77;8.15;;;;;;;17.97;42.22;102448.09;5062058;28;20178;-42
2022/01/13 02:35:53;;;;;;;10.32;7.43;;;;;;;17.95;42.19;102453.56;5049513;28;20267;-41
2022/01/13 02:38:19;;;;;;;10.88;7.95;;;;;;;17.94;42.01;102449.25;5058083;28;20063;-46
2022/01/13 02:40:52;;;;;;;10.43;7.60;;;;;;;17.93;42.10;102444.97;5068481;28;20025;-42
2022/01/13 02:43:18;;;;;;;11.52;7.15;;;;;;;17.93;42.05;102446.75;5062767;28;20033;-41
2022/01/13 02:46:02;;;;;;;9.63;7.38;;;;;;;17.92;41.98;102442.47;5060163;28;20032;-42
2022/01/13 02:48:30;;;;;;;9.85;7.65;;;;;;;17.89;42.18;102433.03;5067915;28;20028;-44
2022/01/13 02:50:56;;;;;;;9.25;6.60;;;;;;;17.88;41.87;102424.28;5061751;28;20540;-44
2022/01/13 02:53:23;;;;;;;7.40;6.55;;;;;;;17.89;42.00;102449.69;5064677;28;20028;-43
2022/01/13 02:55:49;;;;;;;9.32;7.15;;;;;;;17.86;41.97;102431.50;5066346;28;20036;-40
2022/01/13 02:58:15;;;;;;;8.95;6.88;;;;;;;17.85;41.90;102440.41;5058037;28;20299;-46
2022/01/13 03:00:41;;;;;;;10.98;8.02;;;;;;;17.84;41.84;102436.09;5053829;28;20167;-42
2022/01/13 03:03:07;;;;;;;9.48;7.35;;;;;;;17.83;41.87;102436.25;5064814;28;20139;-43
2022/01/13 03:05:37;;;;;;;10.52;7.53;;;;;;;17.84;41.67;102430.81;5062633;28;20024;-43
2022/01/13 03:08:03;;;;;;;9.07;7.65;;;;;;;17.84;41.80;102443.19;5066527;28;20024;-43
2022/01/13 03:10:29;;;;;;;10.18;7.65;;;;;;;17.83;41.67;102447.63;5059469;28;20066;-43
2022/01/13 03:12:56;;;;;;;9.48;7.53;;;;;;;17.84;41.69;102448.44;5065029;28;20106;-44
2022/01/13 03:15:21;;;;;;;10.10;7.85;;;;;;;17.83;41.58;102447.63;5056209;28;20075;-40
2022/01/13 03:17:47;;;;;;;10.13;7.50;;;;;;;17.82;41.65;102445.97;5067504;28;20071;-43
2022/01/13 03:20:13;;;;;;;14.57;7.45;;;;;;;17.82;41.71;102440.69;5065948;28;20574;-39
2022/01/13 03:22:39;;;;;;;8.30;6.90;;;;;;;17.81;41.32;102439.03;5064076;28;20132;-40
2022/01/13 03:25:05;;;;;;;10.90;7.57;;;;;;;17.81;41.47;102448.75;5050047;28;20446;-39
2022/01/13 03:27:34;;;;;;;8.98;7.55;;;;;;;17.81;41.33;102446.09;5068206;28;20035;-41
2022/01/13 03:30:03;;;;;;;9.60;7.35;;;;;;;17.81;41.28;102448.75;5050427;28;20498;-44
2022/01/13 03:32:28;;;;;;;10.43;7.40;;;;;;;17.79;41.55;102451.53;5046006;28;20099;-44
2022/01/13 03:34:54;;;;;;;10.15;7.53;;;;;;;17.78;41.48;102454.28;5047261;28;20498;-47
2022/01/13 03:37:19;;;;;;;8.77;7.60;;;;;;;17.76;41.45;102451.81;5066626;28;20024;-44
2022/01/13 03:39:45;;;;;;;9.50;7.05;;;;;;;17.75;41.32;102450.13;5061808;28;20033;-45
2022/01/13 03:42:11;;;;;;;10.27;7.63;;;;;;;17.73;41.39;102452.09;5064504;28;20029;-43
2022/01/13 03:44:36;;;;;;;10.80;7.22;;;;;;;17.73;41.38;102451.25;5053465;28;20400;-43
2022/01/13 03:47:04;;;;;;;9.27;6.90;;;;;;;17.71;41.33;102454.03;5050224;28;20037;-40
2022/01/13 03:49:30;;;;;;;9.45;7.55;;;;;;;17.71;41.16;102456.66;5065898;28;20037;-45
2022/01/13 03:51:58;;;;;;;8.88;7.60;;;;;;;17.70;41.21;102451.53;5064400;28;20036;-43
2022/01/13 03:54:35;;;;;;;9.10;7.55;;;;;;;17.67;41.13;102457.09;5060878;28;20742;-43
2022/01/13 03:57:27;;;;;;;10.38;7.10;;;;;;;17.65;41.08;102466.91;5062296;28;20119;-44
2022/01/13 04:00:37;;;;;;;9.75;7.70;;;;;;;17.61;41.31;102457.63;5061010;28;20024;-45
2022/01/13 04:03:03;;;;;;;10.65;7.50;;;;;;;17.61;41.34;102450.56;5058490;28;20048;-41
2022/01/13 04:05:28;;;;;;;11.90;8.18;;;;;;;17.61;41.11;102457.63;5061715;28;20036;-50
2022/01/13 04:07:56;;;;;;;11.90;8.38;;;;;;;17.61;41.31;102447.09;5067995;28;20028;-42
2022/01/13 04:10:46;;;;;;;11.50;8.07;;;;;;;17.54;41.26;102452.94;5058223;28;20025;-45
2022/01/13 04:13:32;;;;;;;14.13;9.18;;;;;;;17.55;41.15;102462.50;5068076;28;20071;-45
2022/01/13 04:15:57;;;;;;;11.13;8.23;;;;;;;17.53;41.14;102451.25;5061136;28;20078;-45
2022/01/13 04:18:23;;;;;;;13.35;9.18;;;;;;;17.53;41.31;102451.25;5063183;28;20062;-39
2022/01/13 04:20:48;;;;;;;11.90;8.38;;;;;;;17.52;41.35;102454.88;5055932;28;20025;-39
2022/01/13 04:23:14;;;;;;;12.52;8.30;;;;;;;17.52;41.21;102452.22;5048365;28;20128;-46
2022/01/13 04:25:42;;;;;;;13.45;9.18;;;;;;;17.50;41.12;102446.28;5049413;28;20829;-42
2022/01/13 04:28:07;;;;;;;13.30;9.25;;;;;;;17.50;41.20;102456.81;5067972;28;20036;-41
2022/01/13 04:30:46;;;;;;;12.73;8.15;;;;;;;17.48;41.30;102457.97;5066503;28;20078;-44
2022/01/13 04:33:12;;;;;;;14.70;8.73;;;;;;;17.46;41.11;102457.28;5057358;28;20052;-42
2022/01/13 04:35:39;;;;;;;10.32;7.10;;;;;;;17.45;41.30;102464.34;5063197;28;20435;-43
2022/01/13 04:38:05;;;;;;;10.75;7.93;;;;;;;17.44;41.31;102454.78;5071863;28;20028;-40
2022/01/13 04:40:30;;;;;;;10.57;8.23;;;;;;;17.42;41.23;102458.53;5065014;28;20314;-42
2022/01/13 04:42:56;;;;;;;9.90;7.82;;;;;;;17.40;41.19;102461.28;5071719;28;20028;-43
2022/01/13 04:45:24;;;;;;;12.43;8.18;;;;;;;17.40;41.25;102476.28;5064199;28;20388;-42
2022/01/13 04:47:53;;;;;;;9.80;6.82;;;;;;;17.38;41.03;102479.03;5064047;28;20032;-42
2022/01/13 04:50:20;;;;;;;12.23;8.40;;;;;;;17.38;41.14;102481.69;5069124;28;20574;-46
2022/01/13 04:52:45;;;;;;;13.40;8.77;;;;;;;17.37;40.94;102474.75;5071459;28;20027;-43
2022/01/13 04:55:13;;;;;;;13.23;8.35;;;;;;;17.38;40.94;102473.78;5065630;28;20036;-41
2022/01/13 04:57:39;;;;;;;10.40;7.95;;;;;;;17.38;40.97;102470.31;5060489;28;20063;-46
2022/01/13 05:00:06;;;;;;;9.65;7.13;;;;;;;17.36;40.99;102467.81;5049787;28;20025;-44
2022/01/13 05:02:32;;;;;;;10.68;7.60;;;;;;;17.37;41.07;102471.28;5053524;28;20039;-40
2022/01/13 05:04:58;;;;;;;12.68;8.52;;;;;;;17.37;41.03;102476.56;5069435;28;20024;-42
2022/01/13 05:07:23;;;;;;;11.50;7.80;;;;;;;17.36;40.88;102480.16;5067559;28;20506;-42
2022/01/13 05:09:49;;;;;;;10.27;7.22;;;;;;;17.35;41.03;102489.03;5066359;28;20391;-42
2022/01/13 05:12:14;;;;;;;10.38;7.63;;;;;;;17.36;41.11;102488.06;5064713;28;20024;-45
2022/01/13 05:14:39;;;;;;;9.65;7.80;;;;;;;17.36;41.04;102496.78;5067753;28;20087;-43
2022/01/13 05:17:22;;;;;;;11.48;8.23;;;;;;;17.42;41.06;102505.94;5055238;28;20021;-42
2022/01/13 05:20:08;;;;;;;10.98;7.28;;;;;;;17.46;41.03;102497.63;5029801;28;20061;-39
2022/01/13 05:22:33;;;;;;;13.85;8.23;;;;;;;17.50;41.27;102498.97;5069501;28;20117;-39
2022/01/13 05:24:58;;;;;;;12.63;7.63;;;;;;;17.55;41.30;102504.66;5068319;28;20116;-42
2022/01/13 05:27:24;;;;;;;11.10;8.18;;;;;;;17.58;41.37;102514.09;5055944;28;20136;-41
2022/01/13 05:29:50;;;;;;;10.60;7.25;;;;;;;17.62;41.37;102512.00;5057321;28;20017;-40
2022/01/13 05:32:15;;;;;;;9.80;7.45;;;;;;;17.63;41.38;102508.41;5060743;28;20122;-43
2022/01/13 05:34:41;;;;;;;9.10;6.80;;;;;;;17.65;41.50;102512.59;5068652;28;20028;-46
2022/01/13 05:37:06;;;;;;;10.63;7.18;;;;;;;17.68;41.69;102520.22;5066017;28;20353;-42
2022/01/13 05:39:31;;;;;;;10.10;7.20;;;;;;;17.72;41.83;102528.69;5063662;28;20028;-46
2022/01/13 05:41:57;;;;;;;9.07;6.72;;;;;;;17.78;41.79;102533.41;5063458;28;20116;-42
2022/01/13 05:44:23;;;;;;;8.93;6.50;;;;;;;17.81;42.20;102527.84;5067404;28;20053;-43
2022/01/13 05:46:48;;;;;;;9.05;6.78;;;;;;;17.85;42.10;102511.59;5066489;28;20453;-41
2022/01/13 05:49:14;;;;;;;8.80;6.10;;;;;;;17.90;42.23;102516.44;5063036;28;20506;-43
2022/01/13 05:51:39;;;;;;;9.27;6.50;;;;;;;17.93;42.12;102499.50;5065503;28;20032;-43
2022/01/13 05:54:05;;;;;;;10.55;6.68;;;;;;;17.97;42.34;102496.41;5070317;28;20052;-44
2022/01/13 05:56:30;;;;;;;10.15;6.50;;;;;;;18.00;42.46;102493.47;5062668;28;20029;-43
2022/01/13 05:58:56;;;;;;;8.35;6.65;;;;;;;18.04;42.37;102502.78;5064365;28;20032;-46
2022/01/13 06:01:21;;;;;;;8.52;6.70;;;;;;;18.08;42.61;102509.44;5058418;28;20028;-42
2022/01/13 06:03:47;;;;;;;7.72;6.10;;;;;;;18.12;42.38;102502.88;5061629;28;20032;-43
2022/01/13 06:06:12;;;;;;;7.70;6.20;;;;;;;18.15;42.41;102510.50;5067820;28;20028;-40
2022/01/13 06:08:37;;;;;;;8.52;5.80;;;;;;;18.18;42.24;102504.94;5062135;28;20036;-43
2022/01/13 06:11:03;;;;;;;9.63;6.80;;;;;;;18.23;42.24;102505.34;5050755;28;20570;-40
2022/01/13 06:13:28;;;;;;;9.30;6.60;;;;;;;18.28;42.24;102506.72;5069320;28;20028;-38
2022/01/13 06:15:54;;;;;;;7.82;5.65;;;;;;;18.31;42.04;102515.19;5059723;28;20048;-42
2022/01/13 06:18:19;;;;;;;7.30;4.95;;;;;;;18.34;42.10;102532.53;5061824;28;20070;-42
2022/01/13 06:20:45;;;;;;;8.93;5.38;;;;;;;18.37;42.12;102541.00;5065761;28;20082;-42
2022/01/13 06:23:15;;;;;;;7.00;5.68;;;;;;;18.39;41.99;102538.22;5068654;28;20364;-40
2022/01/13 06:25:40;;;;;;;8.13;5.93;;;;;;;18.41;42.04;102529.16;5057957;28;20480;-39
2022/01/13 06:28:06;;;;;;;8.05;5.72;;;;;;;18.44;42.12;102520.09;5069916;28;20036;-43
2022/01/13 06:30:32;;;;;;;8.18;5.50;;;;;;;18.42;42.17;102524.72;5057647;28;20040;-43
2022/01/13 06:32:58;;;;;;;8.13;5.68;;;;;;;18.44;42.51;102520.94;5065856;28;20024;-39
2022/01/13 06:35:24;;;;;;;8.23;5.90;;;;;;;18.46;42.14;102536.63;5063479;28;20032;-44
2022/01/13 06:37:49;;;;;;;8.13;5.65;;;;;;;18.47;42.17;102552.31;5065861;28;20058;-41
2022/01/13 06:40:15;;;;;;;8.07;5.78;;;;;;;18.50;42.12;102553.81;5063963;28;20030;-44
2022/01/13 06:42:41;;;;;;;6.43;5.55;;;;;;;18.52;42.06;102559.78;5062467;28;20446;-45
2022/01/13 06:45:10;;;;;;;8.15;6.20;;;;;;;18.54;42.08;102568.41;5063976;28;20437;-41
2022/01/13 06:47:37;;;;;;;7.10;5.40;;;;;;;18.55;41.96;102575.34;5067931;28;20091;-41
2022/01/13 06:50:03;;;;;;;8.27;5.28;;;;;;;18.56;41.91;102572.56;5058700;28;20033;-42
2022/01/13 06:52:28;;;;;;;8.27;5.63;;;;;;;18.57;41.95;102578.66;5067222;28;20090;-39
2022/01/13 06:54:54;;;;;;;7.72;5.75;;;;;;;18.57;41.98;102576.84;5061353;28;20468;-49
2022/01/13 06:57:20;;;;;;;8.27;5.45;;;;;;;18.59;41.86;102582.00;5061478;28;20487;-43
2022/01/13 06:59:46;;;;;;;6.25;5.18;;;;;;;18.61;41.75;102577.44;5059693;28;20068;-46
2022/01/13 07:02:13;;;;;;;7.03;5.00;;;;;;;18.61;41.63;102580.06;5059712;28;20028;-46
2022/01/13 07:04:38;;;;;;;7.78;5.43;;;;;;;18.63;41.54;102587.84;5060812;28;20583;-47
2022/01/13 07:07:04;;;;;;;6.63;5.32;;;;;;;18.64;41.47;102589.50;5048881;28;20025;-39
2022/01/13 07:09:29;;;;;;;7.50;5.30;;;;;;;18.64;41.41;102590.34;5051021;28;20029;-40
2022/01/13 07:11:55;;;;;;;8.13;5.55;;;;;;;18.64;41.12;102590.34;5056834;28;20040;-43
2022/01/13 07:14:20;;;;;;;8.23;5.57;;;;;;;18.66;41.14;102590.19;5066424;28;20060;-43
2022/01/13 07:16:47;;;;;;;6.93;5.38;;;;;;;18.65;41.15;102586.72;5040390;28;20033;-39
2022/01/13 07:19:15;;;;;;;7.47;5.47;;;;;;;18.65;40.92;102597.28;5060234;28;20040;-40
2022/01/13 07:21:41;;;;;;;8.18;5.75;;;;;;;18.67;40.62;102599.78;5044360;28;20079;-39
2022/01/13 07:24:07;;;;;;;8.52;5.55;;;;;;;18.67;40.42;102605.91;5044349;28;20056;-42
2022/01/13 07:26:33;;;;;;;7.38;5.38;;;;;;;18.68;40.42;102612.00;5048850;28;20508;-41
2022/01/13 07:28:58;;;;;;;7.90;5.40;;;;;;;18.66;40.43;102622.72;5045077;28;20064;-42
2022/01/13 07:31:24;;;;;;;8.05;5.90;;;;;;;18.66;40.31;102630.63;5062536;28;20044;-42
2022/01/13 07:33:50;;;;;;;8.25;5.65;;;;;;;18.63;40.15;102630.91;5061982;28;20380;-43
2022/01/13 07:36:15;;;;;;;12.77;6.22;;;;;;;18.62;40.45;102631.91;5063434;28;20047;-43
2022/01/13 07:38:42;;;;;;;12.85;6.22;;;;;;;18.70;40.48;102633.81;5064324;28;20024;-44
2022/01/13 07:41:07;;;;;;;9.27;6.25;;;;;;;18.71;40.20;102636.31;5050677;28;20383;-42
2022/01/13 07:43:33;;;;;;;10.00;6.28;;;;;;;18.66;40.07;102635.91;5048128;28;20112;-42
2022/01/13 07:45:59;;;;;;;7.13;5.82;;;;;;;18.62;40.05;102623.16;5053424;28;20044;-40
2022/01/13 07:48:24;;;;;;;12.15;7.00;;;;;;;18.61;39.87;102618.84;5048158;28;20135;-43
2022/01/13 07:50:51;;;;;;;7.43;6.00;;;;;;;18.68;39.97;102625.22;5047924;28;20384;-42
2022/01/13 07:53:17;;;;;;;12.00;7.72;;;;;;;18.79;41.52;102631.16;5052942;28;20115;-41
2022/01/13 07:55:43;;;;;;;12.38;7.55;;;;;;;18.93;43.05;102631.63;5048591;28;20033;-39
2022/01/13 07:58:10;;;;;;;10.30;6.95;;;;;;;18.96;42.67;102636.59;5056507;28;20400;-40
2022/01/13 08:00:36;;;;;;;11.07;7.50;;;;;;;18.98;42.17;102646.03;5043448;28;20069;-42
2022/01/13 08:03:02;;;;;;;14.48;7.20;;;;;;;18.94;42.16;102635.91;5046774;28;20520;-39
2022/01/13 08:05:28;;;;;;;9.93;6.65;;;;;;;18.96;43.17;102645.34;5049688;28;20029;-39
2022/01/13 08:07:53;;;;;;;10.98;7.28;;;;;;;19.00;43.49;102633.53;5049481;28;20450;-39
2022/01/13 08:10:19;;;;;;;9.38;6.65;;;;;;;18.99;43.30;102637.16;5043324;28;20060;-43
2022/01/13 08:12:44;;;;;;;11.50;6.63;;;;;;;18.96;43.02;102641.88;5045037;28;20035;-40
2022/01/13 08:15:14;;;;;;;27.60;11.75;;;;;;;19.01;44.92;102639.63;5051083;28;20511;-39
2022/01/13 08:20:26;;;;;;;37.63;13.73;;;;;;;19.18;46.05;102633.56;5058914;28;20071;-41
2022/01/13 08:22:51;;;;;;;48.60;16.75;;;;;;;19.19;47.60;102625.50;5050679;28;20032;-40
2022/01/13 08:25:17;;;;;;;32.72;12.18;;;;;;;19.18;46.04;102629.13;5047310;28;20062;-44
2022/01/13 08:27:43;;;;;;;22.25;11.15;;;;;;;19.18;45.36;102644.13;5051375;28;20563;-39
2022/01/13 08:30:09;;;;;;;27.08;11.45;;;;;;;19.19;45.13;102653.72;5052899;28;20036;-46
2022/01/13 08:32:35;;;;;;;35.20;12.07;;;;;;;19.19;45.36;102656.38;5055369;28;20299;-39
2022/01/13 08:35:01;;;;;;;24.48;10.80;;;;;;;19.19;44.64;102659.00;5063099;28;20173;-43
2022/01/13 08:37:26;;;;;;;46.95;14.48;;;;;;;19.19;45.17;102657.19;5061661;28;20021;-42
2022/01/13 08:39:51;;;;;;;31.50;10.45;;;;;;;19.23;46.64;102665.66;5050578;28;20129;-42
2022/01/13 08:42:17;;;;;;;30.67;12.07;;;;;;;19.22;46.38;102659.56;5053241;28;20021;-43
2022/01/13 08:44:43;;;;;;;29.05;10.95;;;;;;;19.24;45.92;102672.63;5048011;28;20443;-42
2022/01/13 08:47:09;;;;;;;26.23;10.50;;;;;;;19.22;45.78;102670.13;5046890;28;20412;-45
2022/01/13 08:49:36;;;;;;;26.50;10.77;;;;;;;19.17;45.23;102674.19;5061911;28;20428;-41
2022/01/13 08:52:03;;;;;;;20.10;9.02;;;;;;;19.09;44.42;102671.44;5047707;28;20033;-43
2022/01/13 08:54:28;;;;;;;16.80;7.95;;;;;;;19.08;44.54;102675.91;5048593;28;20033;-42
2022/01/13 08:56:55;;;;;;;21.27;8.43;;;;;;;19.08;44.46;102683.00;5057969;28;20032;-44
2022/01/13 08:59:20;;;;;;;22.63;8.30;;;;;;;19.04;44.12;102685.09;5044487;28;20032;-40
2022/01/13 09:01:46;;;;;;;19.45;7.78;;;;;;;19.01;43.99;102688.03;5045265;28;20029;-43
2022/01/13 09:04:12;;;;;;;22.83;8.27;;;;;;;18.98;43.96;102687.47;5044827;28;20503;-42
2022/01/13 09:06:37;;;;;;;16.85;7.10;;;;;;;18.93;43.40;102684.44;5038412;28;20025;-43
2022/01/13 09:09:03;;;;;;;17.33;7.57;;;;;;;18.87;42.64;102694.63;5053276;28;20044;-40
2022/01/13 09:11:29;;;;;;;21.02;8.18;;;;;;;18.86;42.16;102689.50;5037752;28;20432;-42
2022/01/13 09:13:58;;;;;;;11.73;6.80;;;;;;;18.82;41.07;102693.41;5044440;28;20150;-41
2022/01/13 09:16:27;;;;;;;19.05;7.07;;;;;;;18.78;40.59;102690.22;5041841;28;20051;-41
2022/01/13 09:21:23;;;;;;;19.10;7.28;;;;;;;18.78;39.84;102692.03;5049054;28;20047;-39
2022/01/13 09:23:49;;;;;;;11.20;5.95;;;;;;;18.74;39.50;102688.84;5049307;28;20118;-40
2022/01/13 09:26:15;;;;;;;14.15;6.43;;;;;;;18.70;38.94;102684.00;5040552;28;20547;-41
2022/01/13 09:28:40;;;;;;;15.18;7.40;;;;;;;18.68;39.01;102684.13;5037012;28;20035;-42
2022/01/13 09:31:06;;;;;;;16.40;6.50;;;;;;;18.66;38.74;102678.16;5051103;28;20025;-40
2022/01/13 09:33:32;;;;;;;12.88;6.15;;;;;;;18.64;38.78;102679.28;5050437;28;20106;-40
2022/01/13 09:35:58;;;;;;;14.30;6.07;;;;;;;18.62;38.74;102687.34;5046623;28;20067;-41
2022/01/13 09:38:24;;;;;;;11.48;5.80;;;;;;;18.59;38.73;102692.88;5050079;28;20037;-41
2022/01/13 09:40:52;;;;;;;12.05;5.30;;;;;;;18.58;38.99;102696.50;5040346;28;20035;-39
2022/01/13 09:43:21;;;;;;;11.50;4.82;;;;;;;18.60;39.31;102697.22;5047978;28;20025;-39
2022/01/13 09:45:48;;;;;;;10.68;5.25;;;;;;;18.63;39.70;102696.94;5046645;28;20025;-38
2022/01/13 09:48:14;;;;;;;11.38;5.13;;;;;;;18.62;39.86;102697.91;5049064;28;20048;-40
2022/01/13 09:50:40;;;;;;;9.90;5.20;;;;;;;18.59;40.00;102695.50;5047300;28;20025;-42
2022/01/13 09:53:07;;;;;;;9.93;5.68;;;;;;;18.55;39.87;102689.69;5045956;28;20457;-39
2022/01/13 09:55:32;;;;;;;11.13;5.32;;;;;;;18.55;39.97;102683.56;5047261;28;20037;-42
2022/01/13 09:58:02;;;;;;;8.50;4.78;;;;;;;18.52;39.84;102682.06;5048708;28;20040;-40
2022/01/13 10:00:27;;;;;;;8.55;4.65;;;;;;;18.50;39.94;102691.91;5041669;28;20041;-37
2022/01/13 10:02:53;;;;;;;8.77;5.10;;;;;;;18.48;39.75;102688.59;5042939;28;20330;-40
2022/01/13 10:05:21;;;;;;;6.68;4.30;;;;;;;18.47;39.73;102683.44;5042112;28;20126;-38
2022/01/13 10:07:49;;;;;;;10.57;4.32;;;;;;;18.45;39.86;102685.41;5043446;28;20036;-41
2022/01/13 10:10:17;;;;;;;10.93;4.90;;;;;;;18.48;39.68;102685.94;5052080;28;20124;-38
2022/01/13 10:12:44;;;;;;;10.35;5.00;;;;;;;18.48;39.61;102675.38;5035531;28;20033;-39
2022/01/13 10:17:59;;;;;;;10.23;5.13;;;;;;;18.44;39.35;102675.81;5043705;28;20147;-38
2022/01/13 10:20:24;;;;;;;10.18;4.40;;;;;;;18.42;39.20;102675.16;5049180;28;20033;-40
2022/01/13 10:22:50;;;;;;;10.38;4.50;;;;;;;18.41;39.06;102676.13;5049973;28;20033;-41
2022/01/13 10:25:25;;;;;;;14.77;4.40;;;;;;;18.37;38.96;102682.66;5049214;28;20344;-40
2022/01/13 10:27:50;;;;;;;7.05;3.63;;;;;;;18.37;38.97;102675.56;5049751;28;20560;-39
2022/01/13 10:30:18;;;;;;;9.07;3.78;;;;;;;18.36;39.02;102678.38;5051411;28;20029;-39
2022/01/13 10:32:45;;;;;;;8.60;4.03;;;;;;;18.37;40.13;102683.50;5050946;28;20060;-40
2022/01/13 10:35:18;;;;;;;8.38;4.15;;;;;;;18.42;40.80;102680.44;5067560;28;20056;-38
2022/01/13 10:37:49;;;;;;;9.38;4.25;;;;;;;18.44;41.23;102675.81;5042973;28;20136;-38
2022/01/13 10:40:24;;;;;;;30.20;5.55;;;;;;;18.42;40.82;102673.34;5031688;28;20038;-39
2022/01/13 10:45:01;;;;;;;15.05;4.85;;;;;;;18.60;40.76;102667.31;5036434;27;20542;-37
2022/01/13 10:47:27;;;;;;;14.90;2.88;;;;;;;18.62;40.49;102674.13;5025555;28;20041;-42
2022/01/13 10:50:00;;;;;;;13.48;3.53;;;;;;;18.51;40.45;102663.72;5028224;28;20034;-43
2022/01/13 10:52:28;;;;;;;8.45;2.67;;;;;;;18.45;40.56;102670.41;5033585;28;20042;-43
2022/01/13 10:55:06;;;;;;;15.30;3.45;;;;;;;18.39;40.54;102670.16;5019643;28;20033;-41
2022/01/13 10:57:31;;;;;;;7.20;2.60;;;;;;;18.38;40.34;102671.13;4962421;28;20105;-43
2022/01/13 10:59:58;;;;;;;7.55;2.55;;;;;;;18.36;40.41;102666.00;4969475;28;20062;-45
2022/01/13 11:02:24;;;;;;;8.15;2.50;;;;;;;18.34;40.36;102667.13;4962073;28;20026;-43
2022/01/13 11:04:50;;;;;;;5.25;2.25;;;;;;;18.33;40.34;102665.44;4967548;28;20043;-44
2022/01/13 11:07:27;;;;;;;6.47;2.58;;;;;;;18.31;40.31;102668.22;4971487;28;20030;-43
2022/01/13 11:09:55;;;;;;;5.65;2.55;;;;;;;18.32;40.21;102663.78;4964697;28;20179;-44
2022/01/13 11:12:31;;;;;;;3.85;1.95;;;;;;;18.28;40.35;102662.41;4972745;28;20019;-42
2022/01/13 11:15:03;;;;;;;;;;;;;;;18.18;39.96;102663.25;4960733;28;20036;-43
2022/01/13 11:17:29;;;;;;;9.25;1.40;;;;;;;18.19;40.24;102664.91;4974479;28;19922;-44
2022/01/13 11:19:56;;;;;;;3.65;1.85;;;;;;;18.20;40.09;102666.56;4958031;28;20493;-44
2022/01/13 11:22:22;;;;;;;6.80;2.30;;;;;;;18.19;40.02;102670.19;4971263;28;20042;-45
2022/01/13 11:24:48;;;;;;;4.82;2.15;;;;;;;18.18;39.90;102657.97;4987428;28;20036;-46
2022/01/13 11:27:18;;;;;;;3.40;1.95;;;;;;;18.16;39.84;102653.81;4956018;28;20024;-43
2022/01/13 11:29:47;;;;;;;5.38;1.92;;;;;;;18.14;39.88;102656.59;4971436;28;20035;-42
2022/01/13 11:32:16;;;;;;;7.47;2.20;;;;;;;18.13;39.78;102654.91;4960387;28;20045;-43
2022/01/13 11:34:42;;;;;;;9.40;2.58;;;;;;;18.12;39.85;102642.69;4955413;28;20027;-43
2022/01/13 11:37:08;;;;;;;4.88;2.58;;;;;;;18.11;39.79;102642.84;4964889;28;20558;-46
2022/01/13 11:39:38;;;;;;;8.80;2.75;;;;;;;18.08;39.73;102636.03;4981977;28;20026;-45
2022/01/13 11:42:09;;;;;;;4.57;1.95;;;;;;;18.07;39.94;102625.63;4965172;28;20387;-43